Time;durP1;ratioP1;P1;durP2;ratioP2;P2;SDS_P1;SDS_P2;PMS_P1;PMS_P2;Temp;Humidity;BMP_temperature;BMP_pressure;BME280_temperature;BME280_humidity;BME280_pressure;Samples;Min_cycle;Max_cycle;Signal;HPM_P1;HPM_P2
2023/06/14 00:01:34;;;;;;;8.20;3.80;;;;;;;18.85;56.21;101701.91;6087377;19;20385;-74
2023/06/14 00:03:40;;;;;;;6.20;3.65;;;;;;;18.78;56.75;101700.56;6095571;19;21935;-72
2023/06/14 00:05:46;;;;;;;7.28;3.75;;;;;;;18.74;57.00;101709.63;6099607;19;20413;-72
2023/06/14 00:07:54;;;;;;;8.38;3.75;;;;;;;18.71;57.19;101701.84;6095127;19;20007;-72
2023/06/14 00:10:02;;;;;;;7.88;3.85;;;;;;;18.71;57.37;101709.81;6097147;19;20042;-72
2023/06/14 00:12:08;;;;;;;7.00;4.13;;;;;;;18.68;57.06;101707.34;6102080;19;20014;-71
2023/06/14 00:14:13;;;;;;;5.85;3.50;;;;;;;18.59;57.90;101708.78;6099257;19;20470;-73
2023/06/14 00:16:23;;;;;;;8.20;4.15;;;;;;;18.58;57.94;101706.19;6098097;19;20018;-74
2023/06/14 00:18:33;;;;;;;6.75;3.60;;;;;;;18.49;58.35;101706.75;6098504;19;20027;-71
2023/06/14 00:20:37;;;;;;;8.30;4.05;;;;;;;18.51;58.27;101708.38;6093634;19;20014;-74
2023/06/14 00:22:43;;;;;;;6.65;3.53;;;;;;;18.44;58.77;101704.38;6077195;19;20544;-72
2023/06/14 00:24:50;;;;;;;8.85;4.18;;;;;;;18.45;58.59;101714.06;6100974;19;20056;-73
2023/06/14 00:26:57;;;;;;;7.85;4.18;;;;;;;18.39;59.19;101709.97;6098784;19;20014;-72
2023/06/14 00:29:03;;;;;;;8.02;3.65;;;;;;;18.37;59.22;101711.84;6101017;19;20783;-73
2023/06/14 00:31:08;;;;;;;8.25;3.95;;;;;;;18.33;59.31;101710.34;6097359;19;20002;-73
2023/06/14 00:33:13;;;;;;;8.20;3.85;;;;;;;18.31;59.31;101712.22;6098708;19;20018;-73
2023/06/14 00:35:18;;;;;;;8.65;4.15;;;;;;;18.28;59.72;101714.22;6096318;19;20091;-74
2023/06/14 00:37:24;;;;;;;8.45;4.10;;;;;;;18.20;60.08;101709.34;6095751;19;20084;-72
2023/06/14 00:39:31;;;;;;;7.80;3.85;;;;;;;18.16;60.61;101711.31;6099279;19;20078;-73
2023/06/14 00:41:40;;;;;;;10.07;4.05;;;;;;;18.14;60.41;101715.00;6096854;19;20051;-71
2023/06/14 00:43:46;;;;;;;8.07;4.10;;;;;;;18.09;60.86;101711.75;6093900;19;20090;-72
2023/06/14 00:45:52;;;;;;;8.65;4.13;;;;;;;18.08;61.15;101708.25;6101578;19;20013;-72
2023/06/14 00:47:58;;;;;;;7.10;3.90;;;;;;;18.07;60.74;101719.84;6101518;19;20030;-73
2023/06/14 00:50:04;;;;;;;8.85;4.10;;;;;;;18.02;61.50;101718.41;6102865;19;20398;-71
2023/06/14 00:52:12;;;;;;;6.93;4.13;;;;;;;17.97;61.78;101716.84;6101843;19;20305;-71
2023/06/14 00:54:18;;;;;;;8.77;3.90;;;;;;;17.94;61.86;101708.19;6097447;19;20018;-74
2023/06/14 00:56:24;;;;;;;8.80;4.05;;;;;;;17.93;61.96;101710.00;6104669;19;20011;-73
2023/06/14 00:58:33;;;;;;;7.55;3.78;;;;;;;17.92;61.92;101707.41;6102093;19;19999;-71
2023/06/14 01:00:41;;;;;;;8.07;4.07;;;;;;;17.86;62.02;101713.94;6105443;19;20022;-71
2023/06/14 01:02:49;;;;;;;8.80;4.35;;;;;;;17.84;62.22;101717.66;6101973;19;20006;-71
2023/06/14 01:04:57;;;;;;;9.68;4.03;;;;;;;17.78;62.47;101708.19;6091273;19;20018;-72
2023/06/14 01:07:13;;;;;;;7.93;4.10;;;;;;;17.74;62.92;101711.94;6099307;19;20018;-72
2023/06/14 01:09:25;;;;;;;8.55;4.35;;;;;;;17.69;62.86;101704.25;6099629;19;20036;-72
2023/06/14 01:11:39;;;;;;;8.43;4.50;;;;;;;17.69;63.19;101706.03;6098567;19;20007;-72
2023/06/14 01:13:50;;;;;;;8.50;4.32;;;;;;;17.68;62.79;101707.00;6097560;19;20036;-73
2023/06/14 01:15:57;;;;;;;9.02;4.43;;;;;;;17.60;62.67;101701.25;6094601;19;21758;-72
2023/06/14 01:18:08;;;;;;;8.93;4.00;;;;;;;17.60;62.74;101704.75;6098029;19;20014;-73
2023/06/14 01:20:17;;;;;;;7.78;4.20;;;;;;;17.57;62.60;101707.59;6096255;19;20011;-71
2023/06/14 01:22:29;;;;;;;9.57;4.35;;;;;;;17.57;62.91;101715.56;6096684;19;21516;-72
2023/06/14 01:24:39;;;;;;;7.80;4.28;;;;;;;17.52;62.81;101713.16;6100727;19;20010;-72
2023/06/14 01:26:45;;;;;;;6.90;3.67;;;;;;;17.47;62.65;101704.59;6101641;19;20007;-74
2023/06/14 01:28:58;;;;;;;7.68;4.65;;;;;;;17.42;63.30;101705.78;6100946;19;20357;-72
2023/06/14 01:31:05;;;;;;;6.43;3.38;;;;;;;17.38;63.15;101709.53;6099779;19;20010;-72
2023/06/14 01:33:18;;;;;;;9.40;4.28;;;;;;;17.33;63.31;101704.50;6099028;19;20013;-72
2023/06/14 01:35:24;;;;;;;7.40;4.07;;;;;;;17.31;63.00;101706.38;6099154;19;20014;-72
2023/06/14 01:37:30;;;;;;;8.77;4.03;;;;;;;17.25;63.06;101712.91;6100121;19;20101;-72
2023/06/14 01:39:38;;;;;;;7.72;4.20;;;;;;;17.20;63.37;101709.63;6098724;19;20024;-73
2023/06/14 01:41:43;;;;;;;7.20;3.80;;;;;;;17.18;63.14;101708.00;6097255;19;20006;-72
2023/06/14 01:43:51;;;;;;;14.13;4.68;;;;;;;17.13;63.32;101710.91;6098863;19;20463;-73
2023/06/14 01:45:58;;;;;;;7.38;3.92;;;;;;;17.04;63.73;101712.25;6099285;19;20038;-74
2023/06/14 01:48:04;;;;;;;7.00;4.18;;;;;;;17.01;63.40;101708.88;6099288;19;20046;-72
2023/06/14 01:50:09;;;;;;;9.60;4.78;;;;;;;16.93;62.85;101704.03;6100533;19;20018;-73
2023/06/14 01:52:16;;;;;;;7.22;4.30;;;;;;;16.86;62.96;101705.28;6098116;19;20479;-74
2023/06/14 01:54:21;;;;;;;9.45;4.45;;;;;;;16.80;63.68;101702.97;6088778;19;20566;-72
2023/06/14 01:56:29;;;;;;;7.00;3.78;;;;;;;16.76;64.17;101706.66;6096345;19;20014;-73
2023/06/14 01:58:35;;;;;;;7.95;3.90;;;;;;;16.73;64.31;101706.84;6099260;19;20027;-73
2023/06/14 02:00:43;;;;;;;8.18;4.35;;;;;;;16.69;64.15;101698.16;6100328;19;20322;-72
2023/06/14 02:02:49;;;;;;;9.20;4.72;;;;;;;16.66;63.89;101707.13;6094296;19;20007;-72
2023/06/14 02:04:59;;;;;;;12.80;4.78;;;;;;;16.61;64.59;101701.25;6099751;19;20019;-72
2023/06/14 02:07:04;;;;;;;8.63;4.68;;;;;;;16.58;64.38;101708.47;6097040;19;20054;-74
2023/06/14 02:09:09;;;;;;;9.80;4.63;;;;;;;16.54;64.22;101709.59;6102421;19;20010;-73
2023/06/14 02:11:15;;;;;;;9.15;4.22;;;;;;;16.52;64.22;101703.50;6100219;19;20109;-73
2023/06/14 02:13:24;;;;;;;10.00;4.35;;;;;;;16.51;64.31;101707.97;6098771;19;20577;-71
2023/06/14 02:15:33;;;;;;;7.38;4.20;;;;;;;16.50;64.19;101710.66;6098824;19;20010;-71
2023/06/14 02:17:42;;;;;;;8.77;4.82;;;;;;;16.43;64.39;101712.78;6093905;19;20444;-72
2023/06/14 02:19:48;;;;;;;9.75;5.18;;;;;;;16.40;63.72;101712.94;6095893;19;19999;-74
2023/06/14 02:21:53;;;;;;;9.05;4.07;;;;;;;16.39;64.44;101716.53;6097456;19;20018;-73
2023/06/14 02:24:02;;;;;;;10.00;4.35;;;;;;;16.38;63.89;101712.16;6097059;19;20038;-72
2023/06/14 02:26:08;;;;;;;8.20;4.22;;;;;;;16.32;63.83;101718.63;6096969;19;20018;-73
2023/06/14 02:28:13;;;;;;;7.43;4.60;;;;;;;16.32;63.77;101713.31;6101266;19;20453;-74
2023/06/14 02:30:25;;;;;;;9.48;4.45;;;;;;;16.29;63.84;101712.63;6099447;19;20010;-73
2023/06/14 02:32:31;;;;;;;11.35;4.57;;;;;;;16.26;63.89;101718.09;6083262;19;20371;-72
2023/06/14 02:34:37;;;;;;;8.50;4.10;;;;;;;16.20;64.05;101713.94;6099056;19;20115;-74
2023/06/14 02:36:42;;;;;;;8.73;4.43;;;;;;;16.24;63.57;101712.84;6097564;19;20051;-74
2023/06/14 02:38:48;;;;;;;8.38;4.15;;;;;;;16.20;63.75;101720.09;6099659;19;20014;-72
2023/06/14 02:40:54;;;;;;;10.55;4.35;;;;;;;16.17;64.04;101720.28;6101601;19;20010;-73
2023/06/14 02:43:01;;;;;;;9.55;4.30;;;;;;;16.17;63.61;101714.97;6100286;19;20012;-72
2023/06/14 02:45:05;;;;;;;10.48;4.53;;;;;;;16.14;63.26;101715.13;6108800;19;20038;-74
2023/06/14 02:47:13;;;;;;;8.20;4.18;;;;;;;16.14;63.42;101715.13;6106674;19;20378;-72
2023/06/14 02:49:18;;;;;;;9.25;4.32;;;;;;;16.15;63.42;101710.66;6113346;19;20035;-73
2023/06/14 02:51:26;;;;;;;7.40;4.20;;;;;;;16.12;63.38;101721.44;6102930;19;20032;-72
2023/06/14 02:53:37;;;;;;;9.07;4.60;;;;;;;16.10;63.36;101716.19;6105117;19;20538;-74
2023/06/14 02:55:42;;;;;;;9.30;4.60;;;;;;;16.08;63.41;101720.72;6104932;19;20046;-73
2023/06/14 02:57:48;;;;;;;9.02;4.82;;;;;;;16.06;63.45;101719.94;6109378;19;20006;-72
2023/06/14 02:59:57;;;;;;;12.38;4.25;;;;;;;16.06;63.14;101719.94;6108069;19;21090;-72
2023/06/14 03:02:03;;;;;;;9.70;3.92;;;;;;;16.08;63.15;101722.50;6105585;19;20046;-74
2023/06/14 03:04:11;;;;;;;6.75;3.88;;;;;;;16.01;63.04;101725.47;6109507;19;20244;-73
2023/06/14 03:06:18;;;;;;;7.72;3.90;;;;;;;16.03;63.18;101722.72;6109389;19;20079;-72
2023/06/14 03:08:27;;;;;;;8.18;4.32;;;;;;;16.00;62.86;101725.53;6103277;19;20097;-72
2023/06/14 03:10:35;;;;;;;10.57;4.47;;;;;;;16.00;62.84;101728.19;6109192;19;20017;-73
2023/06/14 03:12:43;;;;;;;8.70;4.43;;;;;;;16.00;62.91;101728.19;6106940;19;20017;-73
2023/06/14 03:14:50;;;;;;;12.57;4.32;;;;;;;15.97;62.83;101734.50;6109804;19;20002;-73
2023/06/14 03:16:56;;;;;;;6.70;4.00;;;;;;;15.96;63.60;101734.59;6106465;19;20604;-74
2023/06/14 03:19:02;;;;;;;9.48;4.18;;;;;;;15.93;62.98;101734.72;6110112;19;20011;-73
2023/06/14 03:21:15;;;;;;;7.55;4.03;;;;;;;15.92;63.25;101741.81;6109588;19;20002;-73
2023/06/14 03:23:26;;;;;;;7.82;4.40;;;;;;;15.91;63.13;101745.41;6106934;19;20007;-74
2023/06/14 03:25:35;;;;;;;7.68;3.90;;;;;;;15.92;63.33;101747.13;6108300;19;20039;-72
2023/06/14 03:27:40;;;;;;;8.32;4.32;;;;;;;15.89;63.33;101746.41;6104928;19;20416;-73
2023/06/14 03:29:47;;;;;;;11.40;4.28;;;;;;;15.90;63.48;101750.78;6105727;19;20039;-72
2023/06/14 03:32:02;;;;;;;8.70;4.43;;;;;;;15.90;63.44;101754.28;6106724;19;20358;-74
2023/06/14 03:34:07;;;;;;;11.13;5.35;;;;;;;15.87;63.51;101751.78;6109013;19;20483;-73
2023/06/14 03:36:17;;;;;;;9.63;4.35;;;;;;;15.84;63.56;101761.69;6106259;19;21301;-71
2023/06/14 03:38:25;;;;;;;8.13;4.20;;;;;;;15.80;63.36;101756.53;6108796;19;20491;-72
2023/06/14 03:40:32;;;;;;;12.35;4.38;;;;;;;15.84;63.27;101753.72;6106971;19;20011;-72
2023/06/14 03:42:37;;;;;;;7.97;5.10;;;;;;;15.83;63.22;101757.31;6105905;19;20014;-72
2023/06/14 03:44:43;;;;;;;9.02;3.67;;;;;;;15.87;63.48;101767.69;6106188;19;20002;-72
2023/06/14 03:46:48;;;;;;;8.77;4.30;;;;;;;15.86;63.37;101759.81;6108039;19;20017;-73
2023/06/14 03:48:57;;;;;;;8.05;3.88;;;;;;;15.88;63.05;101765.91;6108113;19;20010;-73
2023/06/14 03:51:02;;;;;;;9.25;3.90;;;;;;;15.86;63.10;101763.31;6108233;19;20327;-73
2023/06/14 03:53:10;;;;;;;9.80;4.47;;;;;;;15.88;63.51;101768.56;6106287;19;20013;-72
2023/06/14 03:55:16;;;;;;;12.60;4.70;;;;;;;15.87;63.26;101770.34;6103357;19;20010;-72
2023/06/14 03:57:24;;;;;;;9.63;4.43;;;;;;;15.87;63.62;101764.19;6100352;19;20036;-72
2023/06/14 03:59:30;;;;;;;6.63;3.97;;;;;;;15.86;63.45;101763.31;6102556;19;20613;-72
2023/06/14 04:01:45;;;;;;;9.10;4.75;;;;;;;15.87;63.54;101772.97;6100415;19;20070;-73
2023/06/14 04:03:50;;;;;;;11.25;4.68;;;;;;;15.86;63.29;101762.47;6100084;19;20003;-73
2023/06/14 04:05:56;;;;;;;8.13;4.20;;;;;;;15.93;63.32;101764.75;6099104;19;20024;-73
2023/06/14 04:08:01;;;;;;;9.88;4.00;;;;;;;15.95;62.77;101776.13;6097024;19;20031;-73
2023/06/14 04:10:10;;;;;;;8.98;4.35;;;;;;;15.96;62.85;101769.06;6104541;19;20018;-73
2023/06/14 04:12:17;;;;;;;7.05;4.10;;;;;;;15.99;62.78;101769.75;6086491;19;20777;-73
2023/06/14 04:14:23;;;;;;;6.97;4.00;;;;;;;15.96;62.89;101787.59;6100061;19;20006;-72
2023/06/14 04:16:29;;;;;;;9.82;3.95;;;;;;;16.00;62.70;101781.22;6099764;19;20007;-73
2023/06/14 04:18:34;;;;;;;10.93;4.55;;;;;;;15.99;62.87;101785.66;6108491;19;20014;-72
2023/06/14 04:20:40;;;;;;;10.25;4.32;;;;;;;16.02;62.28;101774.91;6104463;19;20002;-74
2023/06/14 04:22:46;;;;;;;9.43;4.10;;;;;;;16.01;62.51;101783.81;6105401;19;20112;-72
2023/06/14 04:24:52;;;;;;;12.00;4.25;;;;;;;16.07;62.21;101784.44;6104750;19;20426;-73
2023/06/14 04:27:11;;;;;;;6.80;3.78;;;;;;;16.10;62.02;101787.78;6107777;19;20163;-74
2023/06/14 04:29:19;;;;;;;8.38;4.50;;;;;;;16.13;61.70;101779.69;6101918;19;20020;-73
2023/06/14 04:31:24;;;;;;;7.93;3.85;;;;;;;16.24;61.47;101777.38;6098413;19;20082;-71
2023/06/14 04:33:32;;;;;;;8.50;3.75;;;;;;;16.32;60.70;101787.59;6101366;19;20002;-72
2023/06/14 04:35:38;;;;;;;10.35;3.63;;;;;;;16.39;60.53;101782.84;6102299;19;20287;-73
2023/06/14 04:37:45;;;;;;;8.32;4.13;;;;;;;16.45;60.54;101787.84;6087229;19;20006;-71
2023/06/14 04:39:51;;;;;;;10.52;4.00;;;;;;;16.51;60.30;101784.91;6100295;19;20007;-72
2023/06/14 04:41:57;;;;;;;7.72;3.80;;;;;;;16.65;59.81;101790.34;6097110;19;20055;-73
2023/06/14 04:44:05;;;;;;;8.00;3.80;;;;;;;16.73;59.51;101789.97;6096776;19;20006;-72
2023/06/14 04:46:15;;;;;;;8.18;3.88;;;;;;;16.83;58.95;101783.28;6100721;19;20592;-72
2023/06/14 04:48:24;;;;;;;6.95;3.83;;;;;;;16.95;58.56;101791.53;6099559;19;20018;-72
2023/06/14 04:50:32;;;;;;;7.85;3.95;;;;;;;17.01;58.54;101781.47;6100934;19;20051;-72
2023/06/14 04:52:38;;;;;;;8.80;4.00;;;;;;;17.19;58.43;101782.28;6097703;19;20471;-72
2023/06/14 04:54:43;;;;;;;8.45;3.85;;;;;;;17.30;57.75;101777.25;6100095;19;19998;-72
2023/06/14 04:56:48;;;;;;;9.05;3.83;;;;;;;17.39;57.25;101785.69;6100393;19;20003;-74
2023/06/14 04:58:53;;;;;;;8.38;3.97;;;;;;;17.52;56.75;101787.56;6101245;19;20365;-72
2023/06/14 05:01:03;;;;;;;7.32;3.67;;;;;;;17.68;56.43;101792.91;6097324;19;20479;-73
2023/06/14 05:03:08;;;;;;;8.13;3.50;;;;;;;17.79;56.41;101781.72;6095284;19;20457;-73
2023/06/14 05:05:15;;;;;;;8.07;3.72;;;;;;;17.89;55.67;101790.03;6096293;19;20025;-73
2023/06/14 05:07:23;;;;;;;8.50;3.42;;;;;;;18.04;55.59;101788.31;6098964;19;22261;-72
2023/06/14 05:09:28;;;;;;;7.10;3.90;;;;;;;18.25;55.33;101781.78;6102783;19;20031;-71
2023/06/14 05:11:33;;;;;;;8.25;3.88;;;;;;;18.38;54.85;101796.06;6101482;19;20035;-73
2023/06/14 05:13:39;;;;;;;9.68;3.83;;;;;;;18.48;54.15;101798.19;6095734;19;20641;-71
2023/06/14 05:15:44;;;;;;;8.90;3.83;;;;;;;18.73;53.65;101787.81;6099286;19;20013;-73
2023/06/14 05:17:55;;;;;;;8.05;4.25;;;;;;;18.73;53.31;101793.13;6100470;19;20007;-72
2023/06/14 05:20:00;;;;;;;7.20;3.58;;;;;;;18.89;53.20;101792.25;6100935;19;20011;-72
2023/06/14 05:22:06;;;;;;;7.35;3.35;;;;;;;19.10;52.12;101792.75;6098769;19;20105;-71
2023/06/14 05:24:11;;;;;;;6.70;4.15;;;;;;;19.16;52.00;101801.22;6099510;19;20010;-72
2023/06/14 05:26:18;;;;;;;6.80;3.72;;;;;;;19.12;51.67;101799.72;6097291;19;20526;-72
2023/06/14 05:28:25;;;;;;;5.82;3.63;;;;;;;19.24;51.33;101798.94;6101543;19;20347;-71
2023/06/14 05:30:33;;;;;;;9.27;4.03;;;;;;;19.61;50.87;101807.28;6099597;19;20006;-74
2023/06/14 05:32:40;;;;;;;8.00;3.90;;;;;;;19.83;50.16;101800.66;6102330;19;20020;-72
2023/06/14 05:34:50;;;;;;;7.38;3.65;;;;;;;19.77;49.33;101803.69;6103226;19;20019;-73
2023/06/14 05:36:55;;;;;;;7.25;3.53;;;;;;;19.94;49.24;101804.31;6100986;19;20316;-73
2023/06/14 05:39:04;;;;;;;9.45;4.50;;;;;;;20.03;49.47;101802.88;6100503;19;20010;-73
2023/06/14 05:41:09;;;;;;;8.82;3.92;;;;;;;20.33;48.54;101805.34;6100017;19;20007;-74
2023/06/14 05:43:14;;;;;;;6.60;3.35;;;;;;;20.42;46.91;101803.88;6103538;19;20035;-72
2023/06/14 05:45:23;;;;;;;6.72;3.88;;;;;;;20.36;46.79;101805.13;6101939;19;20102;-72
2023/06/14 05:47:29;;;;;;;7.82;3.45;;;;;;;20.51;46.92;101808.63;6102445;19;20468;-73
2023/06/14 05:49:33;;;;;;;7.75;3.47;;;;;;;20.64;46.17;101811.31;6098763;19;20046;-72
2023/06/14 05:51:41;;;;;;;7.90;3.70;;;;;;;20.92;45.85;101806.78;6097985;19;20014;-71
2023/06/14 05:53:47;;;;;;;7.82;3.10;;;;;;;21.22;44.90;101811.78;6095019;19;20011;-72
2023/06/14 05:55:55;;;;;;;8.38;4.05;;;;;;;21.03;45.58;101821.09;6098469;19;20016;-73
2023/06/14 05:58:03;;;;;;;6.22;3.53;;;;;;;21.05;45.00;101818.34;6095992;19;20055;-74
2023/06/14 06:00:15;;;;;;;7.53;3.88;;;;;;;21.41;43.74;101814.09;6098939;19;20022;-73
2023/06/14 06:02:20;;;;;;;8.97;3.73;;;;;;;21.43;43.80;101813.03;6097795;19;20014;-73
2023/06/14 06:04:27;;;;;;;7.28;3.72;;;;;;;21.60;43.95;101808.28;6096933;19;20374;-73
2023/06/14 06:06:32;;;;;;;9.70;3.90;;;;;;;21.68;43.32;101811.25;6096810;19;20463;-71
2023/06/14 06:08:40;;;;;;;7.97;3.75;;;;;;;21.66;43.19;101813.19;6098144;19;20009;-72
2023/06/14 06:10:46;;;;;;;7.85;3.80;;;;;;;21.82;42.88;101807.56;6095816;19;20007;-73
2023/06/14 06:12:52;;;;;;;7.88;3.85;;;;;;;21.91;42.77;101810.44;6098484;19;20031;-71
2023/06/14 06:14:57;;;;;;;7.65;3.53;;;;;;;22.07;42.35;101810.16;6096839;19;20006;-72
2023/06/14 06:17:02;;;;;;;8.20;3.90;;;;;;;22.04;42.29;101813.09;6092991;19;20002;-72
2023/06/14 06:19:07;;;;;;;8.00;3.80;;;;;;;22.11;41.74;101818.81;6097456;19;20010;-73
2023/06/14 06:21:13;;;;;;;7.93;3.65;;;;;;;21.81;42.49;101820.09;6099823;19;20006;-71
2023/06/14 06:23:18;;;;;;;9.68;3.45;;;;;;;22.06;41.56;101821.81;6099047;19;20043;-74
2023/06/14 06:25:31;;;;;;;6.82;3.58;;;;;;;22.40;41.65;101816.69;6098987;19;20060;-72
2023/06/14 06:27:37;;;;;;;12.23;4.75;;;;;;;22.27;41.77;101826.59;6097644;19;20474;-72
2023/06/14 06:29:48;;;;;;;7.25;3.50;;;;;;;22.59;41.07;101818.81;6096320;19;20010;-71
2023/06/14 06:31:56;;;;;;;6.47;3.33;;;;;;;22.60;40.30;101817.88;6096812;19;20418;-72
2023/06/14 06:34:01;;;;;;;7.45;3.67;;;;;;;22.45;40.41;101825.22;6099097;19;20594;-72
2023/06/14 06:36:07;;;;;;;11.82;3.92;;;;;;;22.66;40.87;101820.06;6100622;19;20025;-72
2023/06/14 06:38:13;;;;;;;7.03;3.90;;;;;;;22.87;40.51;101817.56;6101402;19;20473;-72
2023/06/14 06:40:19;;;;;;;9.90;4.05;;;;;;;22.96;39.99;101829.41;6099147;19;20082;-72
2023/06/14 06:42:27;;;;;;;8.80;3.60;;;;;;;23.02;39.98;101830.81;6094263;19;20035;-72
2023/06/14 06:44:32;;;;;;;8.25;4.00;;;;;;;23.02;40.09;101834.34;6096069;19;20007;-72
2023/06/14 06:46:39;;;;;;;7.78;3.75;;;;;;;22.68;40.10;101830.69;6099408;19;20025;-74
2023/06/14 06:48:46;;;;;;;7.97;4.00;;;;;;;22.83;40.00;101836.69;6096771;19;20015;-73
2023/06/14 06:50:51;;;;;;;8.27;3.72;;;;;;;23.13;39.05;101839.72;6099794;19;20010;-72
2023/06/14 06:52:56;;;;;;;8.50;3.58;;;;;;;23.12;39.03;101835.34;6096600;19;20002;-71
2023/06/14 06:55:02;;;;;;;8.13;3.90;;;;;;;23.51;39.29;101833.16;6099599;19;20632;-72
2023/06/14 06:57:07;;;;;;;8.98;4.43;;;;;;;23.70;38.91;101840.59;6101996;19;20076;-71
2023/06/14 06:59:16;;;;;;;7.45;3.45;;;;;;;23.55;38.37;101840.00;6100147;19;20010;-72
2023/06/14 07:01:21;;;;;;;7.30;3.70;;;;;;;23.70;38.57;101842.41;6100696;19;20094;-72
2023/06/14 07:03:27;;;;;;;7.53;3.70;;;;;;;23.48;38.25;101854.00;6102643;19;20066;-73
2023/06/14 07:05:32;;;;;;;11.45;3.88;;;;;;;23.44;38.00;101851.56;6101645;19;20499;-72
2023/06/14 07:07:37;;;;;;;6.93;3.63;;;;;;;23.59;37.55;101856.69;6093621;19;20463;-73
2023/06/14 07:09:44;;;;;;;8.60;3.63;;;;;;;23.66;37.70;101865.97;6099822;19;20064;-72
2023/06/14 07:11:50;;;;;;;7.47;4.13;;;;;;;23.79;37.62;101863.19;6096902;19;20039;-71
2023/06/14 07:13:55;;;;;;;6.05;3.63;;;;;;;24.02;36.75;101864.03;6099163;19;20368;-71
2023/06/14 07:16:04;;;;;;;7.47;4.00;;;;;;;23.84;37.00;101858.31;6099126;19;20643;-71
2023/06/14 07:18:09;;;;;;;9.07;5.00;;;;;;;23.68;37.40;101864.03;6099433;19;20385;-72
2023/06/14 07:20:17;;;;;;;7.10;4.35;;;;;;;23.49;37.82;101858.41;6101553;19;20011;-71
2023/06/14 07:22:25;;;;;;;7.32;4.13;;;;;;;23.71;37.72;101854.88;6102443;19;20019;-71
2023/06/14 07:24:36;;;;;;;9.00;3.97;;;;;;;23.74;37.75;101865.38;6094228;19;20030;-71
2023/06/14 07:26:44;;;;;;;8.55;3.75;;;;;;;23.94;37.76;101866.47;6088177;19;20047;-72
2023/06/14 07:28:50;;;;;;;7.70;3.83;;;;;;;24.20;37.41;101859.84;6090047;19;20439;-73
2023/06/14 07:30:56;;;;;;;7.97;4.00;;;;;;;24.09;36.88;101862.53;6096701;19;20006;-74
2023/06/14 07:33:04;;;;;;;9.27;3.80;;;;;;;24.26;36.74;101861.16;6101029;19;20013;-71
2023/06/14 07:35:10;;;;;;;7.57;3.72;;;;;;;24.47;36.61;101859.41;6101920;19;20695;-73
2023/06/14 07:37:18;;;;;;;8.73;3.90;;;;;;;24.58;36.27;101868.41;6103775;19;20011;-71
2023/06/14 07:39:24;;;;;;;8.18;3.70;;;;;;;24.80;36.09;101859.38;6099205;19;20006;-74
2023/06/14 07:41:29;;;;;;;8.02;3.58;;;;;;;24.68;35.54;101859.44;6100725;19;20006;-72
2023/06/14 07:43:34;;;;;;;10.25;3.88;;;;;;;24.53;35.99;101869.63;6103986;19;20003;-71
2023/06/14 07:45:40;;;;;;;8.10;3.72;;;;;;;24.80;35.63;101864.75;6100234;19;20010;-73
2023/06/14 07:47:58;;;;;;;7.78;4.40;;;;;;;24.70;36.17;101870.94;6102138;19;20117;-73
2023/06/14 07:50:06;;;;;;;7.90;3.92;;;;;;;24.92;35.61;101874.47;6101297;19;20010;-73
2023/06/14 07:52:13;;;;;;;8.88;4.60;;;;;;;24.68;35.07;101882.78;6103653;19;20567;-71
2023/06/14 07:54:18;;;;;;;8.77;4.00;;;;;;;25.31;34.89;101881.00;6103465;19;20010;-74
2023/06/14 07:56:25;;;;;;;11.38;3.80;;;;;;;25.10;34.46;101882.81;6103314;19;20447;-73
2023/06/14 07:58:31;;;;;;;7.97;4.28;;;;;;;25.24;34.69;101877.13;6103253;19;20034;-73
2023/06/14 08:00:36;;;;;;;8.25;4.40;;;;;;;25.20;34.66;101878.38;6100003;19;20011;-72
2023/06/14 08:02:41;;;;;;;9.25;4.30;;;;;;;25.49;34.40;101877.66;6102164;19;20027;-71
2023/06/14 08:04:48;;;;;;;7.18;4.28;;;;;;;25.43;34.33;101875.53;6098014;19;20010;-72
2023/06/14 08:06:59;;;;;;;8.85;4.30;;;;;;;25.31;34.08;101883.69;6099512;19;20013;-71
2023/06/14 08:09:04;;;;;;;7.32;4.05;;;;;;;25.31;34.38;101881.00;6093132;19;20011;-71
2023/06/14 08:11:09;;;;;;;6.25;3.53;;;;;;;25.66;33.62;101877.03;6094752;19;20111;-70
2023/06/14 08:13:14;;;;;;;8.90;4.13;;;;;;;26.33;33.61;101882.78;6096261;19;20492;-71
2023/06/14 08:15:22;;;;;;;10.32;4.53;;;;;;;26.19;33.18;101886.75;6101282;19;20698;-71
2023/06/14 08:17:27;;;;;;;7.00;3.65;;;;;;;26.35;32.96;101884.34;6100721;19;20016;-70
2023/06/14 08:19:32;;;;;;;8.00;4.45;;;;;;;26.17;33.49;101878.81;6100969;19;20003;-70
2023/06/14 08:21:38;;;;;;;9.25;4.20;;;;;;;26.02;33.88;101882.88;6098776;19;20007;-71
2023/06/14 08:23:47;;;;;;;9.95;4.20;;;;;;;26.03;32.84;101885.41;6098000;19;20015;-71
2023/06/14 08:25:55;;;;;;;9.15;3.90;;;;;;;26.09;32.93;101886.72;6096158;19;20095;-71
2023/06/14 08:28:01;;;;;;;7.13;3.70;;;;;;;26.44;32.51;101885.38;6096421;19;20051;-72
2023/06/14 08:30:08;;;;;;;7.90;3.78;;;;;;;26.63;31.89;101889.94;6097607;19;20031;-71
2023/06/14 08:32:15;;;;;;;6.53;3.90;;;;;;;26.16;33.02;101893.25;6097983;19;20094;-71
2023/06/14 08:34:21;;;;;;;5.95;3.90;;;;;;;26.64;32.50;101892.50;6100673;19;20006;-72
2023/06/14 08:36:26;;;;;;;10.30;4.13;;;;;;;26.43;32.54;101891.72;6100910;19;20315;-72
2023/06/14 08:38:34;;;;;;;9.27;3.88;;;;;;;26.66;31.38;101886.97;6100422;19;20042;-72
2023/06/14 08:40:55;;;;;;;7.60;3.58;;;;;;;26.67;31.14;101885.97;6100845;19;20015;-71
2023/06/14 08:43:01;;;;;;;8.77;3.80;;;;;;;26.40;31.40;101886.63;6101427;19;20007;-72
2023/06/14 08:45:07;;;;;;;6.10;3.60;;;;;;;26.49;32.14;101883.94;6101564;19;20035;-72
2023/06/14 08:47:17;;;;;;;7.07;3.80;;;;;;;26.41;31.40;101881.13;6100170;19;20006;-72
2023/06/14 08:49:25;;;;;;;7.43;4.20;;;;;;;26.83;31.68;101896.19;6099056;19;20349;-72
2023/06/14 08:51:34;;;;;;;7.30;3.60;;;;;;;27.14;31.70;101889.59;6100772;19;20320;-72
2023/06/14 08:53:43;;;;;;;7.65;4.03;;;;;;;27.23;31.29;101889.78;6087073;19;20018;-71
2023/06/14 08:55:53;;;;;;;9.35;3.78;;;;;;;27.15;31.05;101891.31;6099671;19;20035;-72
2023/06/14 08:58:00;;;;;;;8.80;3.83;;;;;;;26.69;31.62;101894.75;6101135;19;20076;-72
2023/06/14 09:00:11;;;;;;;7.95;4.13;;;;;;;26.66;30.30;101887.81;6097276;19;20013;-72
2023/06/14 09:02:22;;;;;;;7.07;3.35;;;;;;;27.17;30.04;101887.63;6099245;19;20010;-71
2023/06/14 09:04:29;;;;;;;8.18;3.60;;;;;;;27.50;30.18;101889.84;6094566;19;20003;-71
2023/06/14 09:06:36;;;;;;;7.88;3.80;;;;;;;27.45;29.77;101902.91;6096752;19;20012;-71
2023/06/14 09:08:43;;;;;;;7.80;3.45;;;;;;;27.13;30.10;101893.31;6092164;19;20047;-71
2023/06/14 09:10:51;;;;;;;5.75;3.50;;;;;;;27.07;30.53;101893.06;6094624;19;20086;-72
2023/06/14 09:12:56;;;;;;;7.55;4.05;;;;;;;26.95;29.97;101889.66;6093117;19;20007;-72
2023/06/14 09:15:05;;;;;;;9.70;3.83;;;;;;;26.99;30.74;101895.59;6093959;19;20019;-72
2023/06/14 09:17:10;;;;;;;6.78;3.95;;;;;;;27.11;30.90;101880.97;6092859;19;20010;-71
2023/06/14 09:19:23;;;;;;;7.30;3.60;;;;;;;27.54;30.46;101882.28;6093760;19;20010;-73
2023/06/14 09:21:28;;;;;;;6.22;3.78;;;;;;;27.80;29.18;101890.56;6094556;19;20577;-71
2023/06/14 09:23:39;;;;;;;8.73;3.83;;;;;;;28.02;27.89;101884.78;6094932;19;20791;-72
2023/06/14 09:25:51;;;;;;;8.25;3.75;;;;;;;27.75;29.13;101892.84;6093153;19;20024;-71
2023/06/14 09:27:58;;;;;;;8.32;3.47;;;;;;;27.65;29.39;101894.75;6095273;19;20012;-71
2023/06/14 09:30:03;;;;;;;8.15;3.60;;;;;;;27.99;28.91;101897.75;6097102;19;20015;-70
2023/06/14 09:32:10;;;;;;;9.75;3.45;;;;;;;28.22;29.10;101895.47;6099361;19;20018;-72
2023/06/14 09:34:23;;;;;;;8.15;3.95;;;;;;;27.83;28.78;101900.25;6093910;19;20018;-70
2023/06/14 09:36:28;;;;;;;5.55;3.53;;;;;;;27.47;28.88;101890.13;6093156;19;20027;-73
2023/06/14 09:38:36;;;;;;;7.72;3.33;;;;;;;27.72;27.92;101898.56;6088699;19;20063;-71
2023/06/14 09:40:41;;;;;;;10.05;3.85;;;;;;;27.71;28.42;101903.13;6092093;19;20013;-71
2023/06/14 09:42:50;;;;;;;4.57;3.10;;;;;;;27.74;28.23;101902.81;6092727;19;20013;-72
2023/06/14 09:44:57;;;;;;;5.82;3.35;;;;;;;27.55;27.77;101911.84;6097787;19;20722;-71
2023/06/14 09:47:02;;;;;;;6.32;3.45;;;;;;;27.76;27.63;101908.06;6098653;19;20035;-71
2023/06/14 09:49:08;;;;;;;5.85;3.30;;;;;;;27.90;28.08;101906.75;6094573;19;20007;-71
2023/06/14 09:51:18;;;;;;;6.47;3.55;;;;;;;28.07;27.46;101913.19;6092488;19;20006;-71